createdAt,value
2023-03-16T00:00:09.740Z,99653.05
2023-03-16T00:02:58.038Z,99654.19
2023-03-16T00:05:26.281Z,99653.64
2023-03-16T00:07:54.259Z,99653.98
2023-03-16T00:10:27.695Z,99651.38
2023-03-16T00:12:56.960Z,99659.74
2023-03-16T00:15:24.924Z,99659.23
2023-03-16T00:17:53.211Z,99662.71
2023-03-16T00:20:21.174Z,99662.84
2023-03-16T00:22:49.453Z,99661.20
2023-03-16T00:25:17.547Z,99663.24
2023-03-16T00:27:45.696Z,99665.27
2023-03-16T00:30:13.877Z,99665.73
2023-03-16T00:32:42.197Z,99665.45
2023-03-16T00:35:10.884Z,99667.16
2023-03-16T00:37:39.953Z,99662.66
2023-03-16T00:40:09.340Z,99662.20
2023-03-16T00:42:37.605Z,99661.97
2023-03-16T00:45:06.394Z,99659.38
2023-03-16T00:47:36.514Z,99655.31
2023-03-16T00:50:04.786Z,99654.84
2023-03-16T00:52:35.516Z,99649.20
2023-03-16T00:55:04.915Z,99648.09
2023-03-16T00:57:32.995Z,99650.08
2023-03-16T01:00:06.801Z,99644.34
2023-03-16T01:02:37.223Z,99647.09
2023-03-16T01:05:05.918Z,99652.24
2023-03-16T01:07:36.443Z,99656.38
2023-03-16T01:10:05.232Z,99663.18
2023-03-16T01:12:34.228Z,99667.95
2023-03-16T01:15:02.410Z,99678.87
2023-03-16T01:17:35.206Z,99679.42
2023-03-16T01:20:08.215Z,99682.85
2023-03-16T01:22:36.755Z,99683.29
2023-03-16T01:25:05.851Z,99690.85
2023-03-16T01:27:34.128Z,99694.22
2023-03-16T01:30:02.513Z,99701.39
2023-03-16T01:32:31.578Z,99697.55
2023-03-16T01:34:59.985Z,99709.39
2023-03-16T01:37:27.952Z,99710.19
2023-03-16T01:40:02.480Z,99717.19
2023-03-16T01:42:30.955Z,99723.58
2023-03-16T01:45:05.695Z,99723.13
2023-03-16T01:47:39.298Z,99726.83
2023-03-16T01:50:13.730Z,99726.88
2023-03-16T01:52:43.226Z,99733.91
2023-03-16T01:55:14.359Z,99730.52
2023-03-16T01:57:45.400Z,99734.05
2023-03-16T02:00:31.648Z,99741.34
2023-03-16T02:03:27.219Z,99747.79
2023-03-16T02:06:10.032Z,99748.67
2023-03-16T02:08:43.734Z,99752.86
2023-03-16T02:11:13.031Z,99757.20
2023-03-16T02:13:46.434Z,99754.38
2023-03-16T02:16:19.662Z,99760.38
2023-03-16T02:18:51.086Z,99761.90
2023-03-16T02:21:34.405Z,99763.00
2023-03-16T02:24:04.017Z,99765.09
2023-03-16T02:26:35.063Z,99771.20
2023-03-16T02:29:09.481Z,99771.54
2023-03-16T02:31:37.855Z,99778.41
2023-03-16T02:34:07.676Z,99780.94
2023-03-16T02:36:36.855Z,99781.11
2023-03-16T02:39:06.044Z,99783.99
2023-03-16T02:41:41.918Z,99780.73
2023-03-16T02:44:16.273Z,99783.10
2023-03-16T02:46:46.728Z,99782.45
2023-03-16T02:49:25.194Z,99785.83
2023-03-16T02:51:53.567Z,99789.55
2023-03-16T02:54:22.081Z,99789.86
2023-03-16T02:56:50.387Z,99790.39
2023-03-16T02:59:18.697Z,99788.27
2023-03-16T03:01:47.590Z,99787.55
2023-03-16T03:04:15.763Z,99790.20
2023-03-16T03:06:43.796Z,99783.62
2023-03-16T03:09:12.117Z,99787.73
2023-03-16T03:11:40.910Z,99789.27
2023-03-16T03:14:08.815Z,99791.80
2023-03-16T03:16:38.234Z,99800.91
2023-03-16T03:19:06.549Z,99801.59
2023-03-16T03:21:37.487Z,99801.31
2023-03-16T03:24:06.074Z,99802.13
2023-03-16T03:26:38.064Z,99813.88
2023-03-16T03:29:07.142Z,99812.68
2023-03-16T03:31:35.547Z,99821.70
2023-03-16T03:34:06.937Z,99822.98
2023-03-16T03:36:36.570Z,99829.25
2023-03-16T03:39:05.332Z,99831.02
2023-03-16T03:41:34.051Z,99832.14
2023-03-16T03:44:04.270Z,99837.51
2023-03-16T03:46:32.868Z,99836.45
2023-03-16T03:49:04.037Z,99837.77
2023-03-16T03:51:33.816Z,99842.95
2023-03-16T03:54:12.531Z,99844.35
2023-03-16T03:56:58.941Z,99844.05
2023-03-16T03:59:27.418Z,99850.88
2023-03-16T04:02:28.049Z,99847.30
2023-03-16T04:04:57.246Z,99850.02
2023-03-16T04:07:25.419Z,99849.15
2023-03-16T04:09:55.645Z,99854.27
2023-03-16T04:12:30.880Z,99858.77
2023-03-16T04:14:59.778Z,99857.92
2023-03-16T04:17:31.431Z,99861.23
2023-03-16T04:20:02.158Z,99870.77
2023-03-16T04:22:31.262Z,99868.41
2023-03-16T04:24:59.640Z,99871.83
2023-03-16T04:27:28.120Z,99877.53
2023-03-16T04:29:59.877Z,99883.19
2023-03-16T04:32:28.827Z,99883.73
2023-03-16T04:34:58.581Z,99888.23
2023-03-16T04:37:36.493Z,99889.64
2023-03-16T04:40:11.140Z,99892.85
2023-03-16T04:42:40.312Z,99901.02
2023-03-16T04:45:10.134Z,99908.58
2023-03-16T04:47:38.603Z,99903.39
2023-03-16T04:50:07.398Z,99912.11
2023-03-16T04:52:36.692Z,99915.23
2023-03-16T04:55:06.151Z,99915.90
2023-03-16T04:57:35.353Z,99916.05
2023-03-16T05:00:24.972Z,99917.95
2023-03-16T05:03:14.854Z,99919.95
2023-03-16T05:05:42.951Z,99918.88
2023-03-16T05:08:12.448Z,99920.19
2023-03-16T05:10:42.355Z,99924.50
2023-03-16T05:13:11.040Z,99926.61
2023-03-16T05:15:39.909Z,99932.39
2023-03-16T05:18:17.290Z,99939.99
2023-03-16T05:20:45.803Z,99949.80
2023-03-16T05:23:17.043Z,99953.60
2023-03-16T05:25:49.817Z,99957.15
2023-03-16T05:28:19.639Z,99961.20
2023-03-16T05:30:59.454Z,99960.14
2023-03-16T05:33:28.481Z,99965.84
2023-03-16T05:36:03.526Z,99967.46
2023-03-16T05:38:32.306Z,99968.99
2023-03-16T05:41:03.968Z,99968.83
2023-03-16T05:43:57.025Z,99976.42
2023-03-16T05:46:27.768Z,99985.58
2023-03-16T05:48:56.748Z,99992.79
2023-03-16T05:51:28.714Z,99989.96
2023-03-16T05:53:57.916Z,99989.38
2023-03-16T05:56:34.997Z,99985.66
2023-03-16T05:59:03.275Z,99993.71
2023-03-16T06:01:33.908Z,99997.17
2023-03-16T06:04:03.476Z,100007.55
2023-03-16T06:06:35.063Z,100008.54
2023-03-16T06:09:09.489Z,100019.55
2023-03-16T06:11:38.378Z,100013.32
2023-03-16T06:14:06.556Z,100021.14
2023-03-16T06:16:34.749Z,100020.16
2023-03-16T06:19:03.414Z,100029.00
2023-03-16T06:21:31.895Z,100028.23
2023-03-16T06:24:05.394Z,100028.65
2023-03-16T06:26:33.464Z,100034.38
2023-03-16T06:29:01.744Z,100033.52
2023-03-16T06:31:31.099Z,100035.73
2023-03-16T06:33:59.223Z,100039.79
2023-03-16T06:36:27.502Z,100037.59
2023-03-16T06:38:58.470Z,100043.17
2023-03-16T06:41:46.891Z,100047.05
2023-03-16T06:44:16.390Z,100048.41
2023-03-16T06:46:53.687Z,100054.52
2023-03-16T06:49:21.954Z,100057.12
2023-03-16T06:51:51.109Z,100057.85
2023-03-16T06:54:20.630Z,100060.75
2023-03-16T06:56:49.816Z,100062.52
2023-03-16T06:59:17.946Z,100065.69
2023-03-16T07:01:46.205Z,100065.72
2023-03-16T07:04:14.851Z,100066.52
2023-03-16T07:06:43.266Z,100070.63
2023-03-16T07:09:29.909Z,100072.38
2023-03-16T07:11:58.051Z,100072.07
2023-03-16T07:14:26.531Z,100077.05
2023-03-16T07:16:56.611Z,100085.11
2023-03-16T07:19:25.948Z,100089.92
2023-03-16T07:21:55.148Z,100096.33
2023-03-16T07:24:23.523Z,100099.55
2023-03-16T07:26:53.354Z,100105.55
2023-03-16T07:29:28.780Z,100099.85
2023-03-16T07:31:57.536Z,100105.66
2023-03-16T07:34:32.096Z,100107.08
2023-03-16T07:37:00.900Z,100107.20
2023-03-16T07:39:31.934Z,100110.38
2023-03-16T07:42:07.476Z,100113.25
2023-03-16T07:44:46.605Z,100114.56
2023-03-16T07:47:14.916Z,100116.97
2023-03-16T07:49:44.486Z,100122.67
2023-03-16T07:52:15.349Z,100132.70
2023-03-16T07:54:43.801Z,100132.70
2023-03-16T07:57:12.905Z,100137.91
2023-03-16T07:59:43.544Z,100143.00
2023-03-16T08:02:15.628Z,100148.95
2023-03-16T08:04:44.767Z,100155.13
2023-03-16T08:07:15.811Z,100156.70
2023-03-16T08:10:13.562Z,100164.60
2023-03-16T08:12:46.937Z,100166.67
2023-03-16T08:15:15.898Z,100167.48
2023-03-16T08:17:45.812Z,100164.02
2023-03-16T08:20:19.747Z,100170.77
2023-03-16T08:22:50.052Z,100173.67
2023-03-16T08:25:25.231Z,100174.36
2023-03-16T08:27:59.823Z,100178.50
2023-03-16T08:30:28.527Z,100180.84
2023-03-16T08:33:12.189Z,100186.54
2023-03-16T08:35:45.054Z,100192.73
2023-03-16T08:38:14.345Z,100191.16
2023-03-16T08:40:47.102Z,100193.64
2023-03-16T08:43:16.227Z,100199.59
2023-03-16T08:45:45.723Z,100201.67
2023-03-16T08:48:15.031Z,100202.10
2023-03-16T08:50:45.016Z,100213.88
2023-03-16T08:53:13.905Z,100214.69
2023-03-16T08:55:42.191Z,100214.95
2023-03-16T08:58:11.091Z,100216.12
2023-03-16T09:00:39.556Z,100217.97
2023-03-16T09:03:08.020Z,100222.83
2023-03-16T09:05:36.214Z,100221.77
2023-03-16T09:08:06.481Z,100225.23
2023-03-16T09:10:35.535Z,100226.72
2023-03-16T09:13:03.706Z,100235.17
2023-03-16T09:15:31.929Z,100238.31
2023-03-16T09:18:00.899Z,100236.66
2023-03-16T09:20:32.992Z,100238.75
2023-03-16T09:23:01.532Z,100247.49
2023-03-16T09:25:30.990Z,100246.73
2023-03-16T09:28:00.581Z,100250.77
2023-03-16T09:30:29.065Z,100249.46
2023-03-16T09:32:57.838Z,100252.68
2023-03-16T09:35:26.771Z,100253.34
2023-03-16T09:38:05.624Z,100253.80
2023-03-16T09:40:36.213Z,100259.59
2023-03-16T09:43:04.742Z,100257.08
2023-03-16T09:45:41.752Z,100264.13
2023-03-16T09:48:10.819Z,100262.13
2023-03-16T09:50:48.416Z,100266.79
2023-03-16T09:53:24.342Z,100270.63
2023-03-16T09:55:54.617Z,100271.30
2023-03-16T09:58:22.860Z,100273.91
2023-03-16T10:01:10.179Z,100274.56
2023-03-16T10:03:57.646Z,100282.66
2023-03-16T10:06:26.914Z,100283.01
2023-03-16T10:09:04.513Z,100284.60
2023-03-16T10:11:39.662Z,100286.27
2023-03-16T10:14:27.703Z,100283.66
2023-03-16T10:16:58.891Z,100291.43
2023-03-16T10:19:34.667Z,100292.64
2023-03-16T10:22:09.907Z,100291.20
2023-03-16T10:24:48.952Z,100294.42
2023-03-16T10:27:23.220Z,100298.09
2023-03-16T10:29:51.442Z,100295.55
2023-03-16T10:32:19.920Z,100299.63
2023-03-16T10:34:57.358Z,100300.65
2023-03-16T10:37:27.755Z,100302.03
2023-03-16T10:39:56.841Z,100302.23
2023-03-16T10:42:25.324Z,100299.48
2023-03-16T10:45:01.756Z,100304.33
2023-03-16T10:47:32.331Z,100299.94
2023-03-16T10:50:11.708Z,100303.90
2023-03-16T10:52:48.340Z,100301.63
2023-03-16T10:55:32.713Z,100302.58
2023-03-16T10:58:01.581Z,100300.65
2023-03-16T11:00:31.398Z,100300.15
2023-03-16T11:03:00.176Z,100300.59
2023-03-16T11:05:32.963Z,100302.64
2023-03-16T11:08:10.762Z,100299.95
2023-03-16T11:10:55.125Z,100299.92
2023-03-16T11:13:26.464Z,100302.38
2023-03-16T11:16:05.346Z,100304.15
2023-03-16T11:18:39.307Z,100302.98
2023-03-16T11:21:23.111Z,100300.80
2023-03-16T11:23:55.314Z,100300.14
2023-03-16T11:26:33.630Z,100303.13
2023-03-16T11:29:20.592Z,100296.93
2023-03-16T11:31:53.732Z,100294.65
2023-03-16T11:34:27.543Z,100294.54
2023-03-16T11:37:22.644Z,100291.73
2023-03-16T11:40:02.491Z,100294.55
2023-03-16T11:42:30.979Z,100294.23
2023-03-16T11:45:14.000Z,100291.41
2023-03-16T11:47:43.895Z,100293.48
2023-03-16T11:50:15.919Z,100297.28
2023-03-16T11:52:44.151Z,100297.43
2023-03-16T11:55:16.134Z,100298.41
2023-03-16T11:58:03.233Z,100299.52
2023-03-16T12:00:31.512Z,100298.96
2023-03-16T12:03:15.234Z,100299.95
2023-03-16T12:06:13.574Z,100300.75
2023-03-16T12:08:53.785Z,100302.55
2023-03-16T12:11:29.013Z,100302.77
2023-03-16T12:14:03.339Z,100300.51
2023-03-16T12:16:46.259Z,100308.02
2023-03-16T12:19:37.265Z,100309.46
2023-03-16T12:22:23.875Z,100308.77
2023-03-16T12:24:53.422Z,100310.69
2023-03-16T12:27:39.060Z,100308.38
2023-03-16T12:30:25.063Z,100308.81
2023-03-16T12:32:53.638Z,100309.82
2023-03-16T12:35:22.842Z,100313.90
2023-03-16T12:38:10.987Z,100316.98
2023-03-16T12:40:51.545Z,100319.77
2023-03-16T12:43:39.634Z,100320.10
2023-03-16T12:46:11.903Z,100321.05
2023-03-16T12:48:43.505Z,100320.42
2023-03-16T12:51:11.748Z,100319.42
2023-03-16T12:53:53.472Z,100321.33
2023-03-16T12:56:33.365Z,100324.85
2023-03-16T12:59:03.970Z,100327.52
2023-03-16T13:01:44.740Z,100333.73
2023-03-16T13:04:19.343Z,100336.85
2023-03-16T13:06:52.198Z,100338.34
2023-03-16T13:09:25.537Z,100337.84
2023-03-16T13:11:54.329Z,100343.25
2023-03-16T13:14:38.503Z,100343.18
2023-03-16T13:17:12.568Z,100348.70
2023-03-16T13:19:42.648Z,100350.09
2023-03-16T13:22:20.094Z,100351.44
2023-03-16T13:24:54.000Z,100357.37
2023-03-16T13:27:26.084Z,100359.52
2023-03-16T13:29:59.263Z,100359.95
2023-03-16T13:32:31.761Z,100363.23
2023-03-16T13:35:01.041Z,100365.08
2023-03-16T13:37:30.233Z,100365.27
2023-03-16T13:40:00.053Z,100368.27
2023-03-16T13:42:32.746Z,100370.46
2023-03-16T13:45:11.347Z,100369.33
2023-03-16T13:47:42.774Z,100367.53
2023-03-16T13:50:11.940Z,100368.20
2023-03-16T13:52:40.484Z,100370.38
2023-03-16T13:55:16.645Z,100375.92
2023-03-16T13:57:45.844Z,100379.45
2023-03-16T14:00:22.095Z,100381.77
2023-03-16T14:03:04.045Z,100382.17
2023-03-16T14:05:33.812Z,100386.27
2023-03-16T14:08:02.402Z,100386.14
2023-03-16T14:10:34.466Z,100388.90
2023-03-16T14:13:10.348Z,100391.04
2023-03-16T14:15:38.941Z,100389.75
2023-03-16T14:18:30.527Z,100397.17
2023-03-16T14:20:58.910Z,100396.38
2023-03-16T14:23:34.817Z,100402.70
2023-03-16T14:26:04.596Z,100408.73
2023-03-16T14:28:33.262Z,100407.58
2023-03-16T14:31:03.407Z,100407.95
2023-03-16T14:33:33.091Z,100405.80
2023-03-16T14:36:08.021Z,100410.17
2023-03-16T14:38:37.145Z,100414.85
2023-03-16T14:41:09.710Z,100413.81
2023-03-16T14:43:46.583Z,100417.55
2023-03-16T14:46:24.982Z,100422.30
2023-03-16T14:48:59.159Z,100431.29
2023-03-16T14:51:27.582Z,100434.94
2023-03-16T14:53:55.864Z,100437.70
2023-03-16T14:56:24.137Z,100440.52
2023-03-16T14:58:52.312Z,100445.42
2023-03-16T15:01:20.786Z,100448.27
2023-03-16T15:03:49.890Z,100452.70
2023-03-16T15:06:18.175Z,100454.03
2023-03-16T15:08:47.262Z,100454.48
2023-03-16T15:11:21.558Z,100456.88
2023-03-16T15:13:49.653Z,100461.55
2023-03-16T15:16:17.870Z,100462.84
2023-03-16T15:18:46.212Z,100462.43
2023-03-16T15:21:18.686Z,100467.26
2023-03-16T15:23:47.165Z,100471.98
2023-03-16T15:26:16.777Z,100476.33
2023-03-16T15:28:45.253Z,100481.67
2023-03-16T15:31:14.657Z,100485.48
2023-03-16T15:33:42.935Z,100492.98
2023-03-16T15:36:15.823Z,100497.19
2023-03-16T15:38:45.944Z,100506.27
2023-03-16T15:41:14.421Z,100513.14
2023-03-16T15:43:43.003Z,100515.35
2023-03-16T15:46:11.380Z,100522.55
2023-03-16T15:48:40.066Z,100528.14
2023-03-16T15:51:20.862Z,100532.92
2023-03-16T15:53:51.476Z,100538.48
2023-03-16T15:56:24.923Z,100547.18
2023-03-16T15:58:52.911Z,100552.15
2023-03-16T16:01:25.663Z,100557.48
2023-03-16T16:03:55.511Z,100559.09
2023-03-16T16:06:24.438Z,100562.52
2023-03-16T16:08:52.593Z,100563.20
2023-03-16T16:11:28.195Z,100568.23
2023-03-16T16:13:57.747Z,100579.40
2023-03-16T16:16:27.358Z,100586.95
2023-03-16T16:18:55.632Z,100591.99
2023-03-16T16:21:25.927Z,100598.94
2023-03-16T16:23:53.958Z,100602.72
2023-03-16T16:26:49.098Z,100609.63
2023-03-16T16:29:23.781Z,100611.37
2023-03-16T16:31:52.444Z,100615.93
2023-03-16T16:34:24.376Z,100623.55
2023-03-16T16:36:54.072Z,100628.19
2023-03-16T16:39:22.820Z,100630.49
2023-03-16T16:41:52.336Z,100631.46
2023-03-16T16:44:34.340Z,100634.19
2023-03-16T16:47:04.053Z,100635.94
2023-03-16T16:49:35.281Z,100636.96
2023-03-16T16:52:03.983Z,100640.85
2023-03-16T16:54:32.442Z,100645.52
2023-03-16T16:57:01.575Z,100647.92
2023-03-16T16:59:31.649Z,100651.17
2023-03-16T17:02:00.952Z,100651.84
2023-03-16T17:04:29.753Z,100654.74
2023-03-16T17:07:00.907Z,100656.98
2023-03-16T17:09:30.516Z,100660.85
2023-03-16T17:12:01.287Z,100665.50
2023-03-16T17:14:31.520Z,100669.77
2023-03-16T17:17:05.508Z,100673.86
2023-03-16T17:19:33.640Z,100674.32
2023-03-16T17:22:02.550Z,100680.52
2023-03-16T17:24:31.570Z,100680.69
2023-03-16T17:27:00.820Z,100685.86
2023-03-16T17:29:33.013Z,100686.86
2023-03-16T17:32:03.222Z,100690.95
2023-03-16T17:34:33.057Z,100693.91
2023-03-16T17:37:02.391Z,100697.09
2023-03-16T17:39:32.612Z,100699.02
2023-03-16T17:42:11.172Z,100703.73
2023-03-16T17:44:44.188Z,100709.41
2023-03-16T17:47:31.353Z,100714.53
2023-03-16T17:49:59.662Z,100715.61
2023-03-16T17:52:29.392Z,100717.95
2023-03-16T17:54:57.536Z,100719.41
2023-03-16T17:57:27.963Z,100725.08
2023-03-16T17:59:56.870Z,100729.54
2023-03-16T18:02:44.080Z,100727.36
2023-03-16T18:05:31.409Z,100733.02
2023-03-16T18:08:01.524Z,100734.89
2023-03-16T18:10:31.523Z,100745.30
2023-03-16T18:13:02.285Z,100747.59
2023-03-16T18:15:35.154Z,100753.05
2023-03-16T18:18:04.718Z,100758.34
2023-03-16T18:20:36.562Z,100759.96
2023-03-16T18:23:32.048Z,100762.84
2023-03-16T18:26:07.235Z,100765.54
2023-03-16T18:28:35.858Z,100771.05
2023-03-16T18:31:05.802Z,100773.30
2023-03-16T18:33:35.677Z,100771.27
2023-03-16T18:36:08.166Z,100775.05
2023-03-16T18:38:38.011Z,100780.31
2023-03-16T18:41:15.982Z,100784.23
2023-03-16T18:43:44.813Z,100791.78
2023-03-16T18:46:21.713Z,100796.33
2023-03-16T18:48:50.751Z,100803.67
2023-03-16T18:51:18.925Z,100803.18
2023-03-16T18:53:47.001Z,100807.95
2023-03-16T18:56:22.861Z,100810.41
2023-03-16T18:58:51.544Z,100813.38
2023-03-16T19:01:39.899Z,100814.14
2023-03-16T19:04:25.772Z,100817.44
2023-03-16T19:06:54.978Z,100813.66
2023-03-16T19:09:23.255Z,100814.36
2023-03-16T19:11:51.428Z,100814.48
2023-03-16T19:14:24.714Z,100812.36
2023-03-16T19:16:53.415Z,100815.52
2023-03-16T19:19:22.799Z,100817.39
2023-03-16T19:21:57.135Z,100819.64
2023-03-16T19:24:35.885Z,100821.42
2023-03-16T19:27:04.635Z,100830.01
2023-03-16T19:29:34.237Z,100834.96
2023-03-16T19:32:02.376Z,100835.66
2023-03-16T19:34:30.822Z,100835.40
2023-03-16T19:36:59.171Z,100844.56
2023-03-16T19:39:27.981Z,100846.05
2023-03-16T19:41:58.089Z,100852.44
2023-03-16T19:44:27.896Z,100854.57
2023-03-16T19:46:56.279Z,100858.08
2023-03-16T19:49:26.182Z,100861.80
2023-03-16T19:51:55.297Z,100863.13
2023-03-16T19:54:24.814Z,100866.05
2023-03-16T19:56:54.506Z,100867.56
2023-03-16T19:59:24.622Z,100869.94
2023-03-16T20:01:52.813Z,100877.28
2023-03-16T20:04:23.319Z,100880.92
2023-03-16T20:06:52.033Z,100887.96
2023-03-16T20:09:21.007Z,100894.64
2023-03-16T20:11:49.693Z,100893.61
2023-03-16T20:14:30.876Z,100899.61
2023-03-16T20:16:59.372Z,100903.70
2023-03-16T20:19:27.528Z,100906.15
2023-03-16T20:21:56.638Z,100908.62
2023-03-16T20:24:25.105Z,100910.41
2023-03-16T20:26:54.303Z,100911.33
2023-03-16T20:29:22.583Z,100913.73
2023-03-16T20:31:50.973Z,100913.40
2023-03-16T20:34:22.534Z,100916.95
2023-03-16T20:36:51.000Z,100913.95
2023-03-16T20:39:19.376Z,100915.95
2023-03-16T20:41:47.650Z,100918.91
2023-03-16T20:44:18.183Z,100923.13
2023-03-16T20:46:47.129Z,100929.75
2023-03-16T20:49:21.490Z,100929.33
2023-03-16T20:51:50.396Z,100932.09
2023-03-16T20:54:18.771Z,100935.34
2023-03-16T20:56:48.284Z,100937.59
2023-03-16T20:59:24.223Z,100939.30
2023-03-16T21:01:55.906Z,100937.52
2023-03-16T21:04:25.974Z,100945.27
2023-03-16T21:06:54.478Z,100946.55
2023-03-16T21:09:22.566Z,100954.06
2023-03-16T21:11:50.518Z,100950.13
2023-03-16T21:14:21.153Z,100947.20
2023-03-16T21:16:50.179Z,100946.84
2023-03-16T21:19:19.958Z,100950.70
2023-03-16T21:21:47.910Z,100951.36
2023-03-16T21:24:16.308Z,100954.88
2023-03-16T21:26:45.505Z,100951.60
2023-03-16T21:29:16.068Z,100954.06
2023-03-16T21:31:44.559Z,100956.98
2023-03-16T21:34:24.467Z,100958.19
2023-03-16T21:36:52.540Z,100964.05
2023-03-16T21:39:22.728Z,100967.35
2023-03-16T21:41:51.346Z,100970.07
2023-03-16T21:44:19.749Z,100972.92
2023-03-16T21:46:48.367Z,100973.13
2023-03-16T21:49:16.692Z,100974.25
2023-03-16T21:51:44.765Z,100977.93
2023-03-16T21:54:16.416Z,100983.96
2023-03-16T21:56:44.897Z,100985.17
2023-03-16T21:59:13.495Z,100982.15
2023-03-16T22:01:58.366Z,100983.63
2023-03-16T22:04:29.835Z,100992.34
2023-03-16T22:06:58.468Z,100991.77
2023-03-16T22:09:30.416Z,100989.38
2023-03-16T22:11:58.944Z,100987.73
2023-03-16T22:14:27.427Z,100989.70
2023-03-16T22:16:56.620Z,100989.27
2023-03-16T22:19:26.474Z,100991.92
2023-03-16T22:21:55.431Z,100995.11
2023-03-16T22:24:25.231Z,100989.66
2023-03-16T22:26:53.847Z,100994.79
2023-03-16T22:29:26.567Z,100999.52
2023-03-16T22:32:18.214Z,101002.35
2023-03-16T22:34:48.398Z,101002.88
2023-03-16T22:37:21.530Z,101004.58
2023-03-16T22:39:50.656Z,101004.89
2023-03-16T22:42:21.565Z,101010.86
2023-03-16T22:44:49.846Z,101013.21
2023-03-16T22:47:26.321Z,101014.73
2023-03-16T22:49:54.823Z,101015.50
2023-03-16T22:52:25.434Z,101010.40
2023-03-16T22:54:53.500Z,101011.97
2023-03-16T22:57:21.886Z,101019.04
2023-03-16T22:59:51.079Z,101022.36
2023-03-16T23:02:22.260Z,101025.75
2023-03-16T23:04:50.628Z,101021.65
2023-03-16T23:07:19.901Z,101028.94
2023-03-16T23:09:48.687Z,101022.23
2023-03-16T23:12:21.106Z,101028.20
2023-03-16T23:14:49.542Z,101033.17
2023-03-16T23:17:19.064Z,101034.14
2023-03-16T23:19:48.337Z,101030.91
2023-03-16T23:22:16.526Z,101035.39
2023-03-16T23:24:44.807Z,101039.50
2023-03-16T23:27:21.921Z,101039.60
2023-03-16T23:29:50.059Z,101038.07
2023-03-16T23:32:18.438Z,101042.03
2023-03-16T23:34:46.608Z,101043.55
2023-03-16T23:37:14.904Z,101048.97
2023-03-16T23:39:43.482Z,101049.34
2023-03-16T23:42:12.785Z,101053.96
2023-03-16T23:44:41.254Z,101055.48
2023-03-16T23:47:10.454Z,101059.36
2023-03-16T23:49:41.905Z,101059.32
2023-03-16T23:52:10.388Z,101062.06
2023-03-16T23:54:38.663Z,101063.92
2023-03-16T23:57:06.855Z,101060.67
2023-03-16T23:59:35.223Z,101068.56
